Аэропорт: Хомутово. Южно-Сахалинск

ICAO: UHSS

METAR:
2021-07-28 14:00:00
UHSS 281400Z 00000MPS 0900 R19/1700N FG VV003 21/21 Q1005 R19/CLRD70 NOSIG RMK QBB090 MT OBSC QFE752/1003
METAR:
2021-07-28 11:13:00
TAF AMD UHSS 281113Z 2811/2918 18003MPS 0700 FG VV002 BECMG 2820/2822 9999 NSW BKN030CB